Time;durP1;ratioP1;P1;durP2;ratioP2;P2;SDS_P1;SDS_P2;PMS_P1;PMS_P2;Temp;Humidity;BMP_temperature;BMP_pressure;BME280_temperature;BME280_humidity;BME280_pressure;Samples;Min_cycle;Max_cycle;Signal;HPM_P1;HPM_P2
2022/07/12 00:00:48;;;;;;;6.00;5.40;;;;;;;20.38;55.37;98091.44;5074998;28;20181;-70
2022/07/12 00:03:13;;;;;;;9.50;4.83;;;;;;;20.36;55.32;98093.47;5071512;28;20182;-70
2022/07/12 00:05:39;;;;;;;4.90;4.40;;;;;;;20.34;55.61;98095.50;5071194;28;20182;-72
2022/07/12 00:08:06;;;;;;;5.90;4.67;;;;;;;20.29;55.30;98100.56;5072684;28;20573;-71
2022/07/12 00:10:32;;;;;;;5.40;4.50;;;;;;;20.21;55.66;98106.06;5073805;28;20191;-71
2022/07/12 00:12:57;;;;;;;5.83;5.17;;;;;;;20.16;56.24;98108.47;5078684;28;20424;-70
2022/07/12 00:15:23;;;;;;;6.17;5.20;;;;;;;20.12;56.31;98112.53;5071290;28;20424;-70
2022/07/12 00:17:49;;;;;;;4.20;3.80;;;;;;;20.12;56.20;98112.53;5068365;28;20196;-70
2022/07/12 00:20:14;;;;;;;4.73;4.30;;;;;;;20.14;55.88;98110.50;5063782;28;20190;-71
2022/07/12 00:22:40;;;;;;;4.27;3.87;;;;;;;20.14;55.52;98115.81;5070261;28;20193;-69
2022/07/12 00:25:05;;;;;;;5.90;4.63;;;;;;;20.12;55.82;98115.19;5068693;28;20182;-71
2022/07/12 00:27:31;;;;;;;4.37;3.97;;;;;;;20.10;55.69;98110.03;5066207;28;20218;-71
2022/07/12 00:29:56;;;;;;;5.17;4.67;;;;;;;20.04;56.04;98110.81;5067191;28;20179;-71
2022/07/12 00:32:22;;;;;;;4.83;4.43;;;;;;;19.99;56.28;98114.06;5070050;28;20179;-69
2022/07/12 00:34:47;;;;;;;7.00;4.40;;;;;;;19.95;56.16;98113.63;5070285;28;20193;-70
2022/07/12 00:37:13;;;;;;;5.20;4.70;;;;;;;19.87;56.48;98108.41;5071182;28;20565;-70
2022/07/12 00:39:38;;;;;;;5.33;4.83;;;;;;;19.90;56.20;98115.22;5070469;28;20539;-69
2022/07/12 00:42:04;;;;;;;6.53;4.90;;;;;;;19.85;56.41;98106.94;5076436;28;20209;-71
2022/07/12 00:44:33;;;;;;;4.97;4.47;;;;;;;19.83;56.57;98115.13;5062206;28;20190;-70
2022/07/12 00:46:59;;;;;;;4.63;4.23;;;;;;;19.73;56.80;98107.44;5070174;28;20278;-70
2022/07/12 00:49:25;;;;;;;6.40;4.70;;;;;;;19.72;56.89;98105.78;5069801;28;20467;-70
2022/07/12 00:51:50;;;;;;;5.30;4.60;;;;;;;19.73;56.64;98099.47;5070162;28;20424;-70
2022/07/12 00:54:16;;;;;;;6.47;4.93;;;;;;;19.75;56.41;98094.78;5068982;28;20258;-70
2022/07/12 00:56:43;;;;;;;4.73;4.30;;;;;;;19.63;57.00;98096.28;5069313;28;20611;-70
2022/07/12 00:59:08;;;;;;;6.83;4.60;;;;;;;19.55;57.15;98107.88;5082478;28;20531;-70
2022/07/12 01:01:34;;;;;;;4.50;4.10;;;;;;;19.58;57.24;98106.66;5077171;28;20510;-70
2022/07/12 01:04:00;;;;;;;7.83;4.97;;;;;;;19.51;57.41;98111.91;5082140;28;20193;-70
2022/07/12 01:06:26;;;;;;;7.10;5.20;;;;;;;19.56;57.30;98109.53;5071912;28;20289;-69
2022/07/12 01:08:52;;;;;;;6.80;5.97;;;;;;;19.42;57.36;98110.38;5076080;28;20850;-70
2022/07/12 01:11:17;;;;;;;6.63;5.13;;;;;;;19.47;57.21;98110.63;5085305;28;20436;-70
2022/07/12 01:13:47;;;;;;;6.37;5.77;;;;;;;19.46;57.35;98109.81;5084322;28;20228;-69
2022/07/12 01:16:14;;;;;;;4.73;4.33;;;;;;;19.48;57.12;98107.78;5073272;28;20269;-70
2022/07/12 01:18:39;;;;;;;5.63;4.67;;;;;;;19.44;57.34;98117.16;5071739;28;20952;-72
2022/07/12 01:21:07;;;;;;;6.70;5.13;;;;;;;19.46;57.29;98114.31;5086788;28;20424;-68
2022/07/12 01:23:34;;;;;;;5.07;4.53;;;;;;;19.46;57.20;98111.66;5077250;28;20671;-70
2022/07/12 01:26:00;;;;;;;8.73;4.93;;;;;;;19.42;57.42;98113.84;5070343;28;20429;-70
2022/07/12 01:28:26;;;;;;;5.93;4.90;;;;;;;19.37;57.61;98118.91;5072737;28;20987;-69
2022/07/12 01:30:51;;;;;;;6.43;5.23;;;;;;;19.31;57.42;98117.00;5073363;28;20424;-71
2022/07/12 01:33:17;;;;;;;5.43;4.93;;;;;;;19.28;57.76;98118.19;5072906;28;20599;-71
2022/07/12 01:35:43;;;;;;;6.93;5.00;;;;;;;19.22;57.93;98115.44;5070842;28;20182;-69
2022/07/12 01:38:08;;;;;;;5.60;4.27;;;;;;;19.23;58.05;98109.94;5072851;28;20559;-71
2022/07/12 01:40:35;;;;;;;5.77;4.80;;;;;;;19.29;57.66;98114.53;5073525;28;20223;-72
2022/07/12 01:43:01;;;;;;;6.00;5.37;;;;;;;19.31;57.84;98106.34;5075509;28;20649;-71
2022/07/12 01:45:27;;;;;;;6.17;5.00;;;;;;;19.28;57.79;98118.19;5076155;28;20424;-70
2022/07/12 01:47:52;;;;;;;6.20;4.70;;;;;;;19.25;58.03;98112.44;5085568;28;20467;-71
2022/07/12 01:50:18;;;;;;;5.07;4.67;;;;;;;19.25;57.81;98109.78;5073283;28;20220;-70
2022/07/12 01:52:44;;;;;;;17.20;4.60;;;;;;;19.21;58.04;98105.84;5071922;28;20190;-71
2022/07/12 01:55:10;;;;;;;5.07;4.67;;;;;;;19.22;57.94;98102.97;5073449;28;20182;-71
2022/07/12 01:57:36;;;;;;;10.80;4.67;;;;;;;19.23;58.11;98098.50;5078963;28;20440;-71
2022/07/12 02:00:04;;;;;;;5.20;4.70;;;;;;;19.20;57.93;98099.72;5072355;28;20574;-71
2022/07/12 02:02:30;;;;;;;5.17;4.67;;;;;;;19.18;57.87;98104.38;5064118;28;20194;-71
2022/07/12 02:04:56;;;;;;;6.87;5.80;;;;;;;19.19;57.93;98104.19;5071834;28;20455;-71
2022/07/12 02:07:23;;;;;;;5.00;4.50;;;;;;;19.18;57.94;98101.72;5072470;28;20472;-72
2022/07/12 02:09:49;;;;;;;4.30;4.00;;;;;;;19.15;58.11;98097.59;5073535;28;20193;-71
2022/07/12 02:12:14;;;;;;;4.43;4.13;;;;;;;19.18;58.17;98101.72;5077692;28;20801;-72
2022/07/12 02:14:40;;;;;;;4.70;4.30;;;;;;;19.08;58.51;98114.47;5067286;28;20208;-71
2022/07/12 02:17:05;;;;;;;4.77;4.37;;;;;;;19.06;58.69;98109.31;5075269;28;20278;-71
2022/07/12 02:19:31;;;;;;;4.57;4.17;;;;;;;19.11;58.57;98104.28;5077292;28;20271;-71
2022/07/12 02:21:56;;;;;;;7.00;5.47;;;;;;;19.15;58.50;98108.22;5077546;28;20601;-71
2022/07/12 02:24:22;;;;;;;4.30;3.90;;;;;;;19.10;58.31;98100.00;5076997;28;20186;-72
2022/07/12 02:26:47;;;;;;;6.77;4.23;;;;;;;19.00;58.46;98099.47;5077439;28;20193;-70
2022/07/12 02:29:13;;;;;;;4.50;4.10;;;;;;;19.01;58.44;98101.91;5080849;28;20233;-71
2022/07/12 02:31:38;;;;;;;4.67;4.17;;;;;;;19.02;58.50;98094.78;5071920;28;20182;-72
2022/07/12 02:34:04;;;;;;;6.27;3.83;;;;;;;18.97;58.52;98091.84;5069438;28;20669;-71
2022/07/12 02:36:29;;;;;;;4.13;3.83;;;;;;;18.92;58.93;98088.88;5066750;28;20191;-69
2022/07/12 02:38:55;;;;;;;4.17;3.87;;;;;;;18.97;58.76;98091.84;5072014;28;20610;-71
2022/07/12 02:41:21;;;;;;;4.13;3.40;;;;;;;18.98;58.53;98093.50;5071923;28;20186;-70
2022/07/12 02:43:46;;;;;;;5.40;4.43;;;;;;;18.89;58.84;98098.06;5066279;28;20277;-69
2022/07/12 02:46:13;;;;;;;4.73;4.00;;;;;;;18.88;58.77;98101.72;5071475;28;20548;-70
2022/07/12 02:48:39;;;;;;;4.30;4.00;;;;;;;18.83;58.82;98102.25;5070317;28;20827;-70
2022/07/12 02:51:06;;;;;;;4.93;4.00;;;;;;;18.82;58.76;98097.97;5071699;28;20494;-70
2022/07/12 02:53:33;;;;;;;5.10;4.40;;;;;;;18.84;58.67;98097.75;5071581;28;20973;-70
2022/07/12 02:55:59;;;;;;;4.37;4.07;;;;;;;18.81;58.65;98104.28;5071745;28;20927;-70
2022/07/12 02:58:24;;;;;;;4.13;3.73;;;;;;;18.77;58.62;98095.03;5071138;28;20788;-70
2022/07/12 03:00:50;;;;;;;4.50;4.10;;;;;;;18.73;58.75;98105.19;5071963;28;20467;-72
2022/07/12 03:03:15;;;;;;;3.93;3.63;;;;;;;18.75;58.71;98105.03;5071066;28;20183;-70
2022/07/12 03:05:42;;;;;;;4.00;3.70;;;;;;;18.75;58.68;98096.22;5071592;28;20182;-70
2022/07/12 03:08:08;;;;;;;5.60;4.30;;;;;;;18.74;58.69;98098.06;5070765;28;20206;-70
2022/07/12 03:10:34;;;;;;;4.50;4.10;;;;;;;18.71;58.70;98096.56;5073580;28;20421;-70
2022/07/12 03:13:00;;;;;;;5.00;4.40;;;;;;;18.70;58.64;98100.25;5077274;28;20428;-70
2022/07/12 03:15:25;;;;;;;5.57;3.73;;;;;;;18.71;58.66;98106.38;5070952;28;20439;-71
2022/07/12 03:17:51;;;;;;;4.17;3.80;;;;;;;18.65;58.84;98113.25;5077401;28;20208;-71
2022/07/12 03:20:16;;;;;;;5.93;4.20;;;;;;;18.51;59.13;98106.94;5071924;28;20767;-69
2022/07/12 03:22:43;;;;;;;4.43;4.03;;;;;;;18.55;59.14;98108.19;5071207;28;20186;-70
2022/07/12 03:25:09;;;;;;;4.20;3.90;;;;;;;18.58;59.20;98107.03;5070554;28;20182;-70
2022/07/12 03:27:34;;;;;;;3.83;3.53;;;;;;;18.54;59.01;98105.72;5070783;28;20451;-70
2022/07/12 03:30:00;;;;;;;4.40;4.00;;;;;;;18.57;58.78;98113.34;5071304;28;20183;-71
2022/07/12 03:32:26;;;;;;;4.00;3.60;;;;;;;18.56;58.77;98114.34;5068714;28;20273;-71
2022/07/12 03:34:52;;;;;;;8.20;4.03;;;;;;;18.53;58.93;98120.81;5068729;28;20427;-70
2022/07/12 03:37:17;;;;;;;5.17;4.03;;;;;;;18.46;59.08;98125.22;5069913;28;20186;-71
2022/07/12 03:39:43;;;;;;;4.20;3.80;;;;;;;18.43;59.06;98128.22;5070510;28;20705;-70
2022/07/12 03:42:08;;;;;;;5.07;3.90;;;;;;;18.44;59.24;98131.72;5070591;28;20563;-69
2022/07/12 03:44:34;;;;;;;4.60;3.90;;;;;;;18.51;59.06;98136.13;5070489;28;20186;-70
2022/07/12 03:46:59;;;;;;;4.10;3.80;;;;;;;18.53;58.87;98126.13;5070476;28;20204;-68
2022/07/12 03:49:25;;;;;;;4.27;3.70;;;;;;;18.50;59.16;98139.78;5055911;28;20222;-70
2022/07/12 03:51:50;;;;;;;4.37;3.90;;;;;;;18.48;59.49;98140.94;5066936;28;20189;-70
2022/07/12 03:54:16;;;;;;;5.50;3.70;;;;;;;18.55;59.12;98140.06;5068408;28;20186;-70
2022/07/12 03:59:25;;;;;;;11.70;4.77;;;;;;;18.51;59.19;98148.56;5071345;28;20804;-70
2022/07/12 04:01:51;;;;;;;6.80;4.50;;;;;;;18.47;59.18;98152.56;5068163;28;20511;-69
2022/07/12 04:04:16;;;;;;;5.97;5.10;;;;;;;18.42;59.16;98151.28;5069553;28;20679;-69
2022/07/12 04:06:41;;;;;;;6.53;5.80;;;;;;;18.44;59.22;98161.72;5069634;28;20273;-69
2022/07/12 04:09:07;;;;;;;4.47;4.07;;;;;;;18.36;59.26;98156.50;5070309;28;20205;-69
2022/07/12 04:11:33;;;;;;;4.30;3.90;;;;;;;18.36;59.40;98154.66;5071477;28;20205;-69
2022/07/12 04:13:59;;;;;;;4.53;4.13;;;;;;;18.36;59.48;98159.16;5074533;28;20649;-71
2022/07/12 04:16:25;;;;;;;3.77;3.47;;;;;;;18.34;59.61;98164.63;5069147;28;20212;-70
2022/07/12 04:18:50;;;;;;;5.27;4.47;;;;;;;18.31;59.83;98165.00;5069500;28;20294;-70
2022/07/12 04:21:16;;;;;;;4.67;4.27;;;;;;;18.32;59.90;98155.19;5068646;28;20930;-69
2022/07/12 04:23:41;;;;;;;4.07;3.70;;;;;;;18.33;60.49;98159.50;5066488;28;20182;-71
2022/07/12 04:26:06;;;;;;;4.40;4.10;;;;;;;18.35;60.01;98158.31;5068239;28;20178;-69
2022/07/12 04:28:32;;;;;;;5.20;4.70;;;;;;;18.33;59.62;98152.38;5069383;28;20225;-70
2022/07/12 04:30:57;;;;;;;5.53;4.70;;;;;;;18.41;60.03;98144.34;5070199;28;20239;-71
2022/07/12 04:33:23;;;;;;;5.60;5.10;;;;;;;18.41;59.85;98154.09;5069164;28;20210;-69
2022/07/12 04:35:49;;;;;;;4.53;4.13;;;;;;;18.40;59.99;98152.47;5069624;28;20263;-70
2022/07/12 04:38:14;;;;;;;5.10;3.87;;;;;;;18.40;60.03;98158.59;5072957;28;20452;-71
2022/07/12 04:40:40;;;;;;;5.70;4.50;;;;;;;18.46;60.05;98150.94;5073721;28;20194;-70
2022/07/12 04:43:05;;;;;;;4.73;3.67;;;;;;;18.50;60.08;98158.38;5079610;28;20320;-70
2022/07/12 04:45:31;;;;;;;4.43;3.93;;;;;;;18.55;60.14;98157.81;5071946;28;20193;-70
2022/07/12 04:47:56;;;;;;;4.90;4.13;;;;;;;18.56;60.36;98151.50;5071929;28;20251;-70
2022/07/12 04:50:22;;;;;;;5.70;3.90;;;;;;;18.56;60.25;98156.81;5077910;28;20186;-71
2022/07/12 04:52:47;;;;;;;4.33;3.93;;;;;;;18.56;60.21;98154.97;5073397;28;20654;-72
2022/07/12 04:55:13;;;;;;;5.00;3.90;;;;;;;18.58;60.27;98155.63;5072864;28;20587;-72
2022/07/12 04:57:38;;;;;;;5.47;4.00;;;;;;;18.68;60.21;98159.84;5073156;28;20213;-70
2022/07/12 05:00:06;;;;;;;4.27;3.87;;;;;;;18.75;59.95;98154.63;5073657;28;20182;-71
2022/07/12 05:02:32;;;;;;;4.87;4.47;;;;;;;18.77;60.34;98155.28;5066345;28;20642;-71
2022/07/12 05:04:57;;;;;;;4.80;4.00;;;;;;;18.81;60.11;98152.06;5066625;28;20454;-70
2022/07/12 05:07:22;;;;;;;3.90;3.60;;;;;;;18.85;59.97;98156.03;5072376;28;20190;-70
2022/07/12 05:09:48;;;;;;;5.10;3.97;;;;;;;18.93;59.96;98157.78;5076968;28;20182;-71
2022/07/12 05:12:13;;;;;;;4.60;3.43;;;;;;;19.04;59.99;98161.81;5078330;28;20661;-71
2022/07/12 05:14:39;;;;;;;4.47;4.07;;;;;;;19.12;59.92;98172.38;5073464;28;20186;-69
2022/07/12 05:17:04;;;;;;;4.87;3.87;;;;;;;19.19;59.75;98165.28;5072678;28;20262;-70
2022/07/12 05:19:30;;;;;;;4.10;3.70;;;;;;;19.24;59.59;98166.59;5067566;28;20248;-68
2022/07/12 05:21:56;;;;;;;5.77;3.63;;;;;;;19.29;59.84;98167.69;5061529;28;20179;-70
2022/07/12 05:24:21;;;;;;;5.67;3.97;;;;;;;19.32;59.65;98172.63;5063818;28;20183;-69
2022/07/12 05:26:46;;;;;;;5.93;3.57;;;;;;;19.42;59.51;98174.97;5061272;28;20174;-70
2022/07/12 05:29:12;;;;;;;3.97;3.67;;;;;;;19.51;59.29;98172.25;5063474;28;20229;-70
2022/07/12 05:31:37;;;;;;;4.20;3.83;;;;;;;19.58;59.07;98166.00;5065305;28;20206;-70
2022/07/12 05:34:03;;;;;;;3.73;3.43;;;;;;;19.65;58.96;98171.38;5063687;28;20230;-70
2022/07/12 05:36:28;;;;;;;3.50;3.27;;;;;;;19.74;58.94;98164.94;5076662;28;20672;-69
2022/07/12 05:38:54;;;;;;;4.43;4.03;;;;;;;19.88;58.80;98170.44;5078637;28;20277;-71
2022/07/12 05:41:19;;;;;;;3.50;3.20;;;;;;;20.00;58.58;98176.91;5080626;28;20185;-72
2022/07/12 05:43:45;;;;;;;4.20;3.80;;;;;;;20.14;58.35;98177.03;5078623;28;20669;-71
2022/07/12 05:46:11;;;;;;;4.23;3.80;;;;;;;20.25;58.24;98179.19;5070785;28;20259;-69
2022/07/12 05:48:37;;;;;;;3.53;3.17;;;;;;;20.42;58.24;98183.19;5071468;28;20232;-71
2022/07/12 05:53:46;;;;;;;4.20;3.57;;;;;;;20.70;57.57;98201.03;5067286;28;20421;-71
2022/07/12 05:56:12;;;;;;;3.57;3.27;;;;;;;20.81;56.60;98198.88;5066726;28;20962;-70
2022/07/12 05:58:37;;;;;;;4.00;3.50;;;;;;;20.90;55.64;98200.41;5060376;28;20271;-70
2022/07/12 06:01:03;;;;;;;3.60;3.30;;;;;;;21.04;55.65;98197.84;5061968;28;20187;-71
2022/07/12 06:03:28;;;;;;;3.30;3.00;;;;;;;21.17;55.53;98201.38;5061805;28;20684;-70
2022/07/12 06:05:54;;;;;;;4.57;3.50;;;;;;;21.32;55.42;98198.59;5068060;28;20185;-70
2022/07/12 06:08:19;;;;;;;4.53;3.30;;;;;;;21.45;54.50;98202.34;5060579;28;20575;-71
2022/07/12 06:10:44;;;;;;;3.60;2.90;;;;;;;21.57;53.61;98206.09;5069800;28;20178;-69
2022/07/12 06:13:10;;;;;;;4.00;2.70;;;;;;;21.71;52.99;98211.50;5071011;28;20717;-71
2022/07/12 06:15:36;;;;;;;4.60;3.10;;;;;;;21.77;52.58;98213.38;5061701;28;20610;-71
2022/07/12 06:18:02;;;;;;;2.80;2.60;;;;;;;21.91;52.30;98212.41;5065691;28;20276;-71
2022/07/12 06:20:28;;;;;;;2.60;2.40;;;;;;;22.04;52.12;98200.94;5062515;28;20476;-71
2022/07/12 06:22:54;;;;;;;3.97;3.07;;;;;;;22.16;52.06;98214.53;5067380;28;20950;-72
2022/07/12 06:25:19;;;;;;;4.03;2.40;;;;;;;22.23;51.71;98211.88;5057965;28;20187;-70
2022/07/12 06:27:47;;;;;;;2.70;2.57;;;;;;;22.33;51.28;98214.94;5060456;28;20203;-69
2022/07/12 06:30:14;;;;;;;3.43;3.10;;;;;;;22.46;51.26;98219.50;5066745;28;20182;-70
2022/07/12 06:32:40;;;;;;;3.37;2.57;;;;;;;22.57;50.76;98220.75;5068123;28;20491;-69
2022/07/12 06:35:06;;;;;;;3.10;2.40;;;;;;;22.69;50.60;98218.25;5070986;28;20420;-69
2022/07/12 06:37:31;;;;;;;3.40;2.60;;;;;;;22.81;50.34;98221.97;5070713;28;20198;-71
2022/07/12 06:39:57;;;;;;;3.57;2.47;;;;;;;22.95;50.04;98227.28;5072298;28;20186;-69
2022/07/12 06:42:22;;;;;;;4.50;2.40;;;;;;;23.06;49.50;98218.63;5074744;28;20223;-72
2022/07/12 06:44:48;;;;;;;3.50;2.43;;;;;;;23.18;49.37;98210.81;5069443;28;20188;-69
2022/07/12 06:47:13;;;;;;;8.47;2.13;;;;;;;23.29;48.78;98214.72;5066572;28;20179;-72
2022/07/12 06:49:39;;;;;;;5.20;2.13;;;;;;;23.38;48.65;98213.47;5062849;28;20207;-69
2022/07/12 06:52:05;;;;;;;3.00;1.90;;;;;;;23.50;48.00;98218.16;5058027;28;20290;-69
2022/07/12 06:54:30;;;;;;;3.80;2.20;;;;;;;23.61;47.45;98217.50;5052866;28;20194;-68
2022/07/12 06:56:55;;;;;;;4.57;2.07;;;;;;;23.76;47.59;98222.56;5052386;28;20181;-69
2022/07/12 06:59:21;;;;;;;3.00;2.10;;;;;;;23.91;47.53;98220.44;5052104;28;20296;-67
2022/07/12 07:01:46;;;;;;;4.20;1.90;;;;;;;24.04;46.38;98224.94;5067594;28;20260;-70
2022/07/12 07:04:12;;;;;;;6.20;2.03;;;;;;;24.17;45.92;98220.53;5062925;28;20580;-68
2022/07/12 07:06:37;;;;;;;3.70;2.03;;;;;;;24.25;45.54;98224.81;5054652;28;20202;-71
2022/07/12 07:09:07;;;;;;;2.47;1.60;;;;;;;24.34;45.06;98226.19;5057020;28;20338;-73
2022/07/12 07:11:33;;;;;;;1.80;1.20;;;;;;;24.47;44.58;98225.28;5055845;28;20202;-69
2022/07/12 07:13:58;;;;;;;1.33;1.23;;;;;;;24.62;44.32;98235.69;5062155;28;20463;-69
2022/07/12 07:16:24;;;;;;;5.27;1.80;;;;;;;24.75;44.19;98234.78;5056770;28;20269;-70
2022/07/12 07:18:50;;;;;;;4.97;1.60;;;;;;;24.83;44.21;98232.66;5065338;28;20199;-70
2022/07/12 07:21:15;;;;;;;1.73;1.57;;;;;;;24.91;42.88;98234.22;5055883;28;20422;-71
2022/07/12 07:23:41;;;;;;;2.57;1.40;;;;;;;25.00;43.16;98232.91;5059767;28;20194;-69
2022/07/12 07:26:06;;;;;;;1.53;1.43;;;;;;;25.15;42.92;98234.41;5057675;28;20237;-69
2022/07/12 07:28:32;;;;;;;3.90;1.80;;;;;;;25.29;42.49;98245.81;5056835;28;20220;-71
2022/07/12 07:30:58;;;;;;;1.60;1.47;;;;;;;25.35;42.17;98242.25;5054654;28;20201;-70
2022/07/12 07:33:24;;;;;;;3.23;1.40;;;;;;;25.29;41.27;98245.81;5058722;28;20568;-70
2022/07/12 07:35:51;;;;;;;2.50;1.50;;;;;;;25.39;40.98;98239.94;5063668;28;20260;-68
2022/07/12 07:38:17;;;;;;;1.80;1.60;;;;;;;25.52;40.97;98239.81;5045799;28;20438;-69
2022/07/12 07:40:42;;;;;;;2.47;1.70;;;;;;;25.61;40.75;98238.47;5060607;28;20408;-70
2022/07/12 07:43:08;;;;;;;1.60;1.50;;;;;;;25.74;40.15;98236.66;5061622;28;20420;-69
2022/07/12 07:45:34;;;;;;;2.10;1.50;;;;;;;25.84;39.82;98246.88;5055042;28;20179;-69
2022/07/12 07:47:59;;;;;;;3.20;1.90;;;;;;;25.95;39.38;98235.34;5059659;28;20611;-70
2022/07/12 07:50:25;;;;;;;3.53;1.70;;;;;;;26.06;38.10;98241.84;5070839;28;20312;-70
2022/07/12 07:52:51;;;;;;;2.13;1.93;;;;;;;26.14;37.01;98248.78;5068774;28;20179;-69
2022/07/12 07:55:17;;;;;;;1.83;1.63;;;;;;;26.15;37.00;98242.38;5060538;28;20413;-69
2022/07/12 07:57:43;;;;;;;1.80;1.70;;;;;;;26.25;37.45;98247.16;5061607;28;20202;-69
2022/07/12 08:00:09;;;;;;;2.37;2.10;;;;;;;26.28;37.14;98246.72;5059246;28;20886;-71
2022/07/12 08:02:34;;;;;;;1.73;0.87;;;;;;;26.40;37.02;98244.88;5061839;28;20181;-70
2022/07/12 08:05:00;;;;;;;1.30;0.90;;;;;;;26.48;36.52;98254.47;5059194;28;20426;-73
2022/07/12 08:07:25;;;;;;;1.20;0.90;;;;;;;26.53;36.32;98244.69;5058081;28;20178;-71
2022/07/12 08:09:51;;;;;;;1.30;1.00;;;;;;;26.55;36.28;98235.56;5070423;28;20613;-70
2022/07/12 08:12:16;;;;;;;3.57;1.03;;;;;;;26.65;36.48;98235.81;5071310;28;20272;-69
2022/07/12 08:14:42;;;;;;;1.20;0.70;;;;;;;26.59;36.22;98228.69;5060706;28;20190;-71
2022/07/12 08:17:07;;;;;;;1.20;0.90;;;;;;;26.64;36.35;98231.47;5061744;28;20621;-71
2022/07/12 08:19:33;;;;;;;4.93;1.27;;;;;;;26.73;36.44;98229.28;5061710;28;20198;-70
2022/07/12 08:21:58;;;;;;;1.10;0.80;;;;;;;26.86;36.12;98231.78;5068311;28;20174;-70
2022/07/12 08:24:24;;;;;;;3.10;0.90;;;;;;;27.01;36.27;98223.22;5056148;28;20195;-70
2022/07/12 08:26:50;;;;;;;2.40;1.20;;;;;;;27.09;36.12;98230.94;5062302;28;20187;-71
2022/07/12 08:29:15;;;;;;;1.87;1.47;;;;;;;27.21;36.10;98238.22;5060249;28;20230;-71
2022/07/12 08:31:41;;;;;;;3.00;0.93;;;;;;;27.33;35.68;98241.69;5064002;28;20189;-70
2022/07/12 08:34:06;;;;;;;2.23;0.70;;;;;;;27.41;35.43;98235.94;5054487;28;20205;-70
2022/07/12 08:36:32;;;;;;;1.00;0.80;;;;;;;27.55;35.70;98233.03;5071707;28;20185;-71
2022/07/12 08:38:58;;;;;;;1.80;1.70;;;;;;;27.64;34.87;98234.28;5069949;28;20573;-72
2022/07/12 08:41:23;;;;;;;1.10;1.00;;;;;;;27.68;34.44;98232.75;5068924;28;20187;-72
2022/07/12 08:43:49;;;;;;;2.33;1.00;;;;;;;27.69;34.12;98231.69;5075766;28;20212;-70
2022/07/12 08:46:15;;;;;;;1.10;1.00;;;;;;;27.81;34.10;98230.84;5069266;28;20181;-71
2022/07/12 08:48:42;;;;;;;1.10;0.90;;;;;;;27.86;33.77;98233.63;5069864;28;20221;-69
2022/07/12 08:51:12;;;;;;;3.43;0.80;;;;;;;28.03;34.52;98234.50;5070522;28;20456;-71
2022/07/12 08:53:38;;;;;;;1.60;1.10;;;;;;;28.14;34.06;98234.69;5070034;28;20429;-70
2022/07/12 08:56:05;;;;;;;3.53;0.70;;;;;;;28.24;33.79;98237.56;5071973;28;20419;-71
2022/07/12 08:58:30;;;;;;;1.80;1.70;;;;;;;28.33;33.62;98244.22;5062151;28;20464;-71
2022/07/12 09:00:56;;;;;;;2.00;1.90;;;;;;;28.39;33.72;98250.53;5071272;28;20463;-71
2022/07/12 09:03:21;;;;;;;2.70;1.97;;;;;;;28.51;33.32;98253.13;5070019;28;20174;-70
2022/07/12 09:05:55;;;;;;;3.13;1.10;;;;;;;28.64;32.79;98252.81;5069452;28;20229;-71
2022/07/12 09:08:33;;;;;;;2.90;0.90;;;;;;;28.82;32.92;98248.28;5069629;28;20206;-72
2022/07/12 09:11:02;;;;;;;5.20;4.70;;;;;;;28.96;32.31;98254.13;5073631;28;20942;-71
2022/07/12 09:13:53;;;;;;;3.57;1.20;;;;;;;29.05;32.56;98243.75;5075846;28;20416;-70
2022/07/12 09:16:23;;;;;;;2.40;1.50;;;;;;;29.14;32.20;98253.06;5070015;28;20449;-70
2022/07/12 09:18:50;;;;;;;2.67;2.47;;;;;;;29.28;31.70;98246.25;5070481;28;20877;-71
2022/07/12 09:21:23;;;;;;;2.23;1.90;;;;;;;29.38;32.02;98250.16;5070539;28;20470;-76
2022/07/12 09:24:06;;;;;;;1.30;1.03;;;;;;;29.29;31.71;98244.38;5073764;28;21232;-71
2022/07/12 09:26:33;;;;;;;1.13;0.93;;;;;;;29.42;32.44;98254.81;5060028;28;20428;-70
2022/07/12 09:29:05;;;;;;;1.90;1.00;;;;;;;29.48;31.72;98250.31;5071720;28;20452;-70
2022/07/12 09:37:16;;;;;;;3.40;1.30;;;;;;;29.04;32.15;98253.75;5076073;28;20478;-72
2022/07/12 09:39:43;;;;;;;1.63;1.10;;;;;;;28.98;31.98;98251.22;5073085;28;20472;-70
2022/07/12 09:42:10;;;;;;;1.27;1.17;;;;;;;28.77;31.57;98248.19;5078853;28;20454;-70
2022/07/12 09:44:36;;;;;;;1.10;1.00;;;;;;;28.57;32.47;98243.25;5073057;28;20856;-69
2022/07/12 09:47:02;;;;;;;2.30;1.20;;;;;;;28.49;32.20;98252.56;5073117;28;20439;-71
2022/07/12 09:49:29;;;;;;;3.57;1.00;;;;;;;28.72;32.37;98248.09;5066454;28;20930;-69
2022/07/12 09:51:55;;;;;;;1.10;1.00;;;;;;;28.86;31.96;98249.41;5073436;28;20236;-69
2022/07/12 09:54:25;;;;;;;1.60;0.90;;;;;;;29.09;31.99;98248.41;5071862;28;20938;-71
2022/07/12 09:56:54;;;;;;;2.50;0.83;;;;;;;29.26;31.60;98242.97;5074653;28;20432;-74
2022/07/12 09:59:23;;;;;;;5.00;0.90;;;;;;;29.42;31.63;98256.69;5071599;28;20439;-70
2022/07/12 10:01:49;;;;;;;9.03;0.83;;;;;;;29.65;31.48;98246.72;5073892;28;20433;-69
2022/07/12 10:04:15;;;;;;;1.10;0.70;;;;;;;29.82;30.72;98262.84;5071776;28;20432;-71
2022/07/12 10:06:40;;;;;;;1.07;0.90;;;;;;;29.98;30.19;98250.38;5071646;28;21141;-70
2022/07/12 10:09:06;;;;;;;1.43;0.90;;;;;;;30.05;30.22;98255.59;5076658;28;20284;-71
2022/07/12 10:11:32;;;;;;;1.73;1.00;;;;;;;30.16;29.64;98255.41;5067747;28;20190;-71
2022/07/12 10:13:57;;;;;;;0.90;0.70;;;;;;;30.25;29.88;98260.34;5086816;28;20189;-69
2022/07/12 10:16:27;;;;;;;1.87;0.90;;;;;;;30.41;30.08;98261.34;5073705;28;20248;-69
2022/07/12 10:19:43;;;;;;;1.83;0.70;;;;;;;30.53;28.94;98261.16;5081075;28;20285;-72
2022/07/12 10:22:21;;;;;;;1.40;0.70;;;;;;;30.55;28.69;98261.75;5068258;28;20427;-71
2022/07/12 10:24:49;;;;;;;10.63;0.80;;;;;;;30.61;28.96;98258.84;5072386;28;20458;-69
2022/07/12 10:27:14;;;;;;;1.00;0.60;;;;;;;30.74;29.57;98263.00;5069997;28;20420;-73
2022/07/12 10:29:40;;;;;;;2.70;0.90;;;;;;;30.81;29.14;98257.38;5074593;28;20882;-70
2022/07/12 10:32:26;;;;;;;1.00;0.80;;;;;;;30.86;29.13;98259.31;5070657;28;20204;-72
2022/07/12 10:35:02;;;;;;;1.37;1.00;;;;;;;30.75;28.88;98261.91;5067429;28;20417;-71
2022/07/12 10:37:28;;;;;;;1.83;1.10;;;;;;;30.86;29.25;98249.28;5066707;28;20511;-71
2022/07/12 10:40:19;;;;;;;2.70;0.90;;;;;;;31.02;29.03;98247.50;5067252;28;20429;-70
2022/07/12 10:43:00;;;;;;;2.33;1.03;;;;;;;31.16;28.97;98239.78;5069611;28;20412;-71
2022/07/12 10:45:29;;;;;;;1.60;1.10;;;;;;;31.38;29.04;98245.00;5071771;28;20416;-69
2022/07/12 10:48:01;;;;;;;3.30;2.97;;;;;;;31.55;28.84;98244.00;5071629;28;20453;-70
2022/07/12 10:50:41;;;;;;;4.80;3.13;;;;;;;31.66;28.02;98245.69;5071626;28;20425;-71
2022/07/12 10:53:19;;;;;;;1.93;1.70;;;;;;;31.74;28.06;98238.97;5071977;28;20434;-70
2022/07/12 10:56:03;;;;;;;7.27;3.43;;;;;;;31.79;27.74;98227.31;5073686;28;20428;-72
2022/07/12 10:58:34;;;;;;;3.00;0.90;;;;;;;31.67;27.82;98227.53;5067299;28;20440;-70
2022/07/12 11:01:06;;;;;;;6.23;4.40;;;;;;;31.69;28.19;98220.81;5072746;28;20432;-71
2022/07/12 11:03:32;;;;;;;1.87;0.80;;;;;;;31.59;27.35;98231.56;5062516;28;20978;-71
2022/07/12 11:06:03;;;;;;;3.23;1.00;;;;;;;31.59;27.67;98230.75;5071591;28;20931;-71
2022/07/12 11:08:29;;;;;;;1.23;0.90;;;;;;;31.66;28.13;98228.63;5069852;28;20456;-69
2022/07/12 11:10:56;;;;;;;1.40;0.70;;;;;;;31.68;28.08;98229.97;5074994;28;20500;-70
2022/07/12 11:13:23;;;;;;;1.80;0.97;;;;;;;31.63;27.93;98224.53;5082566;28;20421;-70
2022/07/12 11:15:58;;;;;;;1.93;0.80;;;;;;;31.42;27.60;98226.38;5071527;28;20429;-71
2022/07/12 11:18:31;;;;;;;0.90;0.63;;;;;;;31.33;28.31;98226.06;5070418;28;20448;-71
2022/07/12 11:20:57;;;;;;;1.03;0.80;;;;;;;31.41;28.34;98222.81;5069003;28;20428;-71
2022/07/12 11:23:24;;;;;;;1.00;0.90;;;;;;;31.48;28.04;98227.19;5068924;28;20420;-71
2022/07/12 11:25:50;;;;;;;1.00;0.80;;;;;;;31.56;27.36;98230.22;5071283;28;20500;-72
2022/07/12 11:28:17;;;;;;;1.07;0.60;;;;;;;31.58;27.09;98235.34;5070353;28;20461;-71
2022/07/12 11:30:50;;;;;;;1.00;0.73;;;;;;;31.60;26.92;98229.66;5071975;28;20228;-71
2022/07/12 11:33:15;;;;;;;0.93;0.70;;;;;;;31.54;27.16;98231.53;5067876;28;20436;-72
2022/07/12 11:35:44;;;;;;;1.00;0.70;;;;;;;31.58;27.51;98221.00;5070122;28;20867;-71
2022/07/12 11:38:10;;;;;;;0.80;0.57;;;;;;;31.59;27.48;98211.78;5070388;28;20229;-70
2022/07/12 11:40:35;;;;;;;0.80;0.60;;;;;;;31.70;27.99;98214.31;5070936;28;20947;-72
2022/07/12 11:43:02;;;;;;;1.10;0.80;;;;;;;31.80;27.82;98223.53;5070672;28;20185;-71